Cove, Oregon
Current Conditions -  °F | °C
As of 6:55 AM on Thursday 30 Oct 2014 (Local Time) from KLGD Reporting Station
Overcast Overcast  
Wind Chill: 42°   Ceiling: 8000
Heat Index: 48°   Visibility: 10mi
Dew Point: 37°   Wind: 17mph
Humidity: 66%   Direction: 310°NW
Pressure: 30.12"   Gusts: 24mph
Location:  45.3°N, 117.81°W
Report Text: KLGD 301355Z AUTO 31015G21KT 10SM BKN080 OVC100 09/03 A3012 RMK AO1
Loading
Personal Weather Stations






























Interactive Weather Map
Tropical Storm Tracking
New forecast layout! Learn more

10-Day Weather Forecast

Advertisements
Track Severe Weather on mobile